sensor_id;sensor_type;location;lat;lon;timestamp;P1;durP1;ratioP1;P2;durP2;ratioP2
6898;SDS011;3488;42.616;23.350;2024-03-23T00:53:26;5.60;;;2.30;;
6898;SDS011;3488;42.616;23.350;2024-03-23T00:55:51;4.63;;;1.90;;
6898;SDS011;3488;42.616;23.350;2024-03-23T00:58:17;5.03;;;2.80;;
6898;SDS011;3488;42.616;23.350;2024-03-23T01:00:43;4.47;;;1.92;;
6898;SDS011;3488;42.616;23.350;2024-03-23T01:03:08;4.78;;;1.55;;
6898;SDS011;3488;42.616;23.350;2024-03-23T01:05:33;3.80;;;1.65;;
6898;SDS011;3488;42.616;23.350;2024-03-23T01:07:59;4.05;;;1.73;;
6898;SDS011;3488;42.616;23.350;2024-03-23T01:10:25;5.05;;;2.15;;
6898;SDS011;3488;42.616;23.350;2024-03-23T01:12:50;7.57;;;2.10;;
6898;SDS011;3488;42.616;23.350;2024-03-23T01:15:16;5.18;;;2.50;;
6898;SDS011;3488;42.616;23.350;2024-03-23T01:17:42;4.72;;;2.17;;
6898;SDS011;3488;42.616;23.350;2024-03-23T01:20:08;5.20;;;2.05;;
6898;SDS011;3488;42.616;23.350;2024-03-23T01:22:34;4.30;;;1.92;;
6898;SDS011;3488;42.616;23.350;2024-03-23T01:25:00;4.82;;;1.92;;
6898;SDS011;3488;42.616;23.350;2024-03-23T01:27:25;3.72;;;1.50;;
6898;SDS011;3488;42.616;23.350;2024-03-23T01:29:51;4.50;;;1.90;;
6898;SDS011;3488;42.616;23.350;2024-03-23T01:32:17;4.63;;;1.75;;
6898;SDS011;3488;42.616;23.350;2024-03-23T01:34:44;6.50;;;3.00;;
6898;SDS011;3488;42.616;23.350;2024-03-23T01:37:09;5.03;;;2.00;;
6898;SDS011;3488;42.616;23.350;2024-03-23T01:39:35;5.10;;;2.38;;
6898;SDS011;3488;42.616;23.350;2024-03-23T01:42:01;3.88;;;1.75;;
6898;SDS011;3488;42.616;23.350;2024-03-23T01:44:26;4.53;;;1.48;;
6898;SDS011;3488;42.616;23.350;2024-03-23T01:46:52;3.65;;;1.58;;
6898;SDS011;3488;42.616;23.350;2024-03-23T01:49:18;4.35;;;1.88;;
6898;SDS011;3488;42.616;23.350;2024-03-23T01:51:43;5.80;;;2.38;;
6898;SDS011;3488;42.616;23.350;2024-03-23T01:54:10;7.13;;;2.35;;
6898;SDS011;3488;42.616;23.350;2024-03-23T01:56:36;7.88;;;2.75;;
6898;SDS011;3488;42.616;23.350;2024-03-23T01:59:02;8.05;;;3.75;;
6898;SDS011;3488;42.616;23.350;2024-03-23T02:01:28;11.07;;;4.28;;
6898;SDS011;3488;42.616;23.350;2024-03-23T02:03:54;9.25;;;4.35;;
6898;SDS011;3488;42.616;23.350;2024-03-23T02:06:20;11.48;;;5.00;;
6898;SDS011;3488;42.616;23.350;2024-03-23T02:08:46;9.50;;;4.25;;
6898;SDS011;3488;42.616;23.350;2024-03-23T02:11:12;8.63;;;3.95;;
6898;SDS011;3488;42.616;23.350;2024-03-23T02:13:37;7.60;;;2.83;;
6898;SDS011;3488;42.616;23.350;2024-03-23T02:16:04;6.13;;;2.33;;
6898;SDS011;3488;42.616;23.350;2024-03-23T02:18:30;4.65;;;1.52;;
6898;SDS011;3488;42.616;23.350;2024-03-23T02:20:56;3.90;;;1.58;;
6898;SDS011;3488;42.616;23.350;2024-03-23T02:23:21;4.22;;;1.58;;
6898;SDS011;3488;42.616;23.350;2024-03-23T02:25:47;3.72;;;1.17;;
6898;SDS011;3488;42.616;23.350;2024-03-23T02:28:12;4.03;;;1.52;;
6898;SDS011;3488;42.616;23.350;2024-03-23T02:30:38;3.58;;;1.35;;
6898;SDS011;3488;42.616;23.350;2024-03-23T02:33:03;2.83;;;1.08;;
6898;SDS011;3488;42.616;23.350;2024-03-23T02:35:29;4.60;;;1.40;;
6898;SDS011;3488;42.616;23.350;2024-03-23T02:37:55;4.72;;;1.42;;
6898;SDS011;3488;42.616;23.350;2024-03-23T02:40:22;5.47;;;1.73;;
6898;SDS011;3488;42.616;23.350;2024-03-23T02:42:49;3.90;;;1.27;;
6898;SDS011;3488;42.616;23.350;2024-03-23T02:45:14;3.15;;;1.30;;
6898;SDS011;3488;42.616;23.350;2024-03-23T02:47:40;4.72;;;1.67;;
6898;SDS011;3488;42.616;23.350;2024-03-23T02:50:06;5.03;;;1.83;;
6898;SDS011;3488;42.616;23.350;2024-03-23T02:52:32;8.05;;;3.05;;
6898;SDS011;3488;42.616;23.350;2024-03-23T02:54:58;6.15;;;2.88;;
6898;SDS011;3488;42.616;23.350;2024-03-23T02:57:24;8.90;;;3.47;;
6898;SDS011;3488;42.616;23.350;2024-03-23T02:59:49;7.20;;;2.00;;
6898;SDS011;3488;42.616;23.350;2024-03-23T03:02:16;5.50;;;2.10;;
6898;SDS011;3488;42.616;23.350;2024-03-23T03:04:41;5.43;;;1.67;;
6898;SDS011;3488;42.616;23.350;2024-03-23T03:07:08;4.50;;;2.20;;
6898;SDS011;3488;42.616;23.350;2024-03-23T03:09:34;5.55;;;2.10;;
6898;SDS011;3488;42.616;23.350;2024-03-23T03:12:00;6.45;;;2.97;;
6898;SDS011;3488;42.616;23.350;2024-03-23T03:14:27;5.22;;;2.00;;
6898;SDS011;3488;42.616;23.350;2024-03-23T03:16:53;6.38;;;2.92;;
6898;SDS011;3488;42.616;23.350;2024-03-23T03:19:19;5.50;;;2.33;;
6898;SDS011;3488;42.616;23.350;2024-03-23T03:21:44;5.68;;;2.63;;
6898;SDS011;3488;42.616;23.350;2024-03-23T03:24:10;6.43;;;2.75;;
6898;SDS011;3488;42.616;23.350;2024-03-23T03:26:35;7.05;;;2.78;;
6898;SDS011;3488;42.616;23.350;2024-03-23T03:29:02;5.85;;;2.20;;
6898;SDS011;3488;42.616;23.350;2024-03-23T03:31:28;6.55;;;2.20;;
6898;SDS011;3488;42.616;23.350;2024-03-23T03:33:53;6.50;;;2.60;;
6898;SDS011;3488;42.616;23.350;2024-03-23T03:36:19;4.50;;;1.85;;
6898;SDS011;3488;42.616;23.350;2024-03-23T03:38:45;4.78;;;1.83;;
6898;SDS011;3488;42.616;23.350;2024-03-23T03:41:10;5.20;;;2.03;;
6898;SDS011;3488;42.616;23.350;2024-03-23T03:43:36;5.47;;;2.22;;
6898;SDS011;3488;42.616;23.350;2024-03-23T03:46:03;4.97;;;1.52;;
6898;SDS011;3488;42.616;23.350;2024-03-23T03:48:28;5.25;;;2.55;;
6898;SDS011;3488;42.616;23.350;2024-03-23T03:50:54;5.55;;;2.22;;
6898;SDS011;3488;42.616;23.350;2024-03-23T03:53:20;4.60;;;1.80;;
6898;SDS011;3488;42.616;23.350;2024-03-23T03:55:46;4.07;;;1.40;;
6898;SDS011;3488;42.616;23.350;2024-03-23T03:58:12;3.92;;;1.52;;
6898;SDS011;3488;42.616;23.350;2024-03-23T04:00:37;5.07;;;1.88;;
6898;SDS011;3488;42.616;23.350;2024-03-23T04:03:03;4.93;;;2.10;;
6898;SDS011;3488;42.616;23.350;2024-03-23T04:05:29;4.07;;;1.73;;
6898;SDS011;3488;42.616;23.350;2024-03-23T04:07:55;4.60;;;1.92;;
6898;SDS011;3488;42.616;23.350;2024-03-23T04:10:21;6.28;;;2.20;;
6898;SDS011;3488;42.616;23.350;2024-03-23T04:12:47;8.20;;;2.10;;
6898;SDS011;3488;42.616;23.350;2024-03-23T04:15:13;4.30;;;1.77;;
6898;SDS011;3488;42.616;23.350;2024-03-23T04:17:39;7.97;;;2.40;;
6898;SDS011;3488;42.616;23.350;2024-03-23T04:20:07;6.57;;;1.73;;
6898;SDS011;3488;42.616;23.350;2024-03-23T04:22:36;5.38;;;2.05;;
6898;SDS011;3488;42.616;23.350;2024-03-23T04:25:03;5.20;;;2.65;;
6898;SDS011;3488;42.616;23.350;2024-03-23T04:27:35;4.05;;;1.95;;
6898;SDS011;3488;42.616;23.350;2024-03-23T04:30:01;15.55;;;6.18;;
6898;SDS011;3488;42.616;23.350;2024-03-23T04:32:29;9.00;;;4.15;;
6898;SDS011;3488;42.616;23.350;2024-03-23T04:34:55;7.50;;;3.45;;
6898;SDS011;3488;42.616;23.350;2024-03-23T04:37:21;7.85;;;3.28;;
6898;SDS011;3488;42.616;23.350;2024-03-23T04:39:47;14.38;;;5.95;;
6898;SDS011;3488;42.616;23.350;2024-03-23T04:42:14;16.13;;;6.55;;
6898;SDS011;3488;42.616;23.350;2024-03-23T04:44:41;15.88;;;7.18;;
6898;SDS011;3488;42.616;23.350;2024-03-23T04:47:07;16.20;;;7.45;;
6898;SDS011;3488;42.616;23.350;2024-03-23T04:49:33;18.38;;;7.10;;
6898;SDS011;3488;42.616;23.350;2024-03-23T04:51:58;15.45;;;7.90;;
6898;SDS011;3488;42.616;23.350;2024-03-23T04:54:24;13.32;;;6.25;;
6898;SDS011;3488;42.616;23.350;2024-03-23T04:56:49;10.07;;;4.43;;
6898;SDS011;3488;42.616;23.350;2024-03-23T04:59:15;8.30;;;3.92;;
6898;SDS011;3488;42.616;23.350;2024-03-23T05:01:40;6.10;;;3.08;;
6898;SDS011;3488;42.616;23.350;2024-03-23T05:04:07;10.02;;;3.75;;
6898;SDS011;3488;42.616;23.350;2024-03-23T05:06:33;8.38;;;3.65;;
6898;SDS011;3488;42.616;23.350;2024-03-23T05:08:59;7.68;;;3.53;;
6898;SDS011;3488;42.616;23.350;2024-03-23T05:11:28;10.32;;;4.65;;
6898;SDS011;3488;42.616;23.350;2024-03-23T05:13:53;14.73;;;6.45;;
6898;SDS011;3488;42.616;23.350;2024-03-23T05:16:19;15.75;;;7.18;;
6898;SDS011;3488;42.616;23.350;2024-03-23T05:18:45;19.25;;;7.13;;
6898;SDS011;3488;42.616;23.350;2024-03-23T05:21:12;19.90;;;7.80;;
6898;SDS011;3488;42.616;23.350;2024-03-23T05:23:37;17.77;;;8.00;;
6898;SDS011;3488;42.616;23.350;2024-03-23T05:26:03;21.80;;;8.15;;
6898;SDS011;3488;42.616;23.350;2024-03-23T05:28:29;18.50;;;8.95;;
6898;SDS011;3488;42.616;23.350;2024-03-23T05:30:55;16.25;;;7.50;;
6898;SDS011;3488;42.616;23.350;2024-03-23T05:33:25;16.00;;;7.03;;
6898;SDS011;3488;42.616;23.350;2024-03-23T05:35:57;18.33;;;7.50;;
6898;SDS011;3488;42.616;23.350;2024-03-23T05:38:23;15.57;;;6.72;;
6898;SDS011;3488;42.616;23.350;2024-03-23T05:40:59;14.43;;;6.47;;
6898;SDS011;3488;42.616;23.350;2024-03-23T05:43:25;12.27;;;6.30;;
6898;SDS011;3488;42.616;23.350;2024-03-23T05:45:58;12.18;;;5.53;;
6898;SDS011;3488;42.616;23.350;2024-03-23T05:48:25;20.67;;;8.90;;
6898;SDS011;3488;42.616;23.350;2024-03-23T05:50:51;14.38;;;7.18;;
6898;SDS011;3488;42.616;23.350;2024-03-23T05:53:17;16.50;;;7.85;;
6898;SDS011;3488;42.616;23.350;2024-03-23T05:55:45;16.75;;;7.63;;
6898;SDS011;3488;42.616;23.350;2024-03-23T05:58:12;15.65;;;6.57;;
6898;SDS011;3488;42.616;23.350;2024-03-23T06:00:39;15.65;;;7.13;;
6898;SDS011;3488;42.616;23.350;2024-03-23T06:03:04;13.45;;;6.93;;
6898;SDS011;3488;42.616;23.350;2024-03-23T06:05:30;15.43;;;7.03;;
6898;SDS011;3488;42.616;23.350;2024-03-23T06:07:56;15.27;;;6.90;;
6898;SDS011;3488;42.616;23.350;2024-03-23T06:10:22;15.38;;;6.95;;
6898;SDS011;3488;42.616;23.350;2024-03-23T06:12:48;15.90;;;5.93;;
6898;SDS011;3488;42.616;23.350;2024-03-23T06:15:14;14.82;;;6.75;;
6898;SDS011;3488;42.616;23.350;2024-03-23T06:17:39;18.35;;;6.82;;
6898;SDS011;3488;42.616;23.350;2024-03-23T06:20:06;13.70;;;6.70;;
6898;SDS011;3488;42.616;23.350;2024-03-23T06:22:32;18.98;;;7.65;;
6898;SDS011;3488;42.616;23.350;2024-03-23T06:24:58;17.40;;;8.00;;
6898;SDS011;3488;42.616;23.350;2024-03-23T06:27:24;19.95;;;8.57;;
6898;SDS011;3488;42.616;23.350;2024-03-23T06:29:49;15.90;;;7.57;;
6898;SDS011;3488;42.616;23.350;2024-03-23T06:32:15;14.35;;;6.82;;
6898;SDS011;3488;42.616;23.350;2024-03-23T06:34:41;13.65;;;7.07;;
6898;SDS011;3488;42.616;23.350;2024-03-23T06:37:07;18.30;;;7.72;;
6898;SDS011;3488;42.616;23.350;2024-03-23T06:39:34;17.08;;;7.93;;
6898;SDS011;3488;42.616;23.350;2024-03-23T06:42:03;14.88;;;6.47;;
6898;SDS011;3488;42.616;23.350;2024-03-23T06:44:29;11.30;;;6.25;;
6898;SDS011;3488;42.616;23.350;2024-03-23T06:46:55;15.02;;;6.50;;
6898;SDS011;3488;42.616;23.350;2024-03-23T06:49:22;15.13;;;6.75;;
6898;SDS011;3488;42.616;23.350;2024-03-23T06:51:48;14.75;;;7.10;;
6898;SDS011;3488;42.616;23.350;2024-03-23T06:54:14;14.95;;;6.88;;
6898;SDS011;3488;42.616;23.350;2024-03-23T06:56:40;14.20;;;6.85;;
6898;SDS011;3488;42.616;23.350;2024-03-23T06:59:06;15.85;;;6.57;;
6898;SDS011;3488;42.616;23.350;2024-03-23T07:01:31;12.88;;;6.40;;
6898;SDS011;3488;42.616;23.350;2024-03-23T07:03:57;11.48;;;5.97;;
6898;SDS011;3488;42.616;23.350;2024-03-23T07:06:23;11.63;;;5.45;;
6898;SDS011;3488;42.616;23.350;2024-03-23T07:08:48;9.73;;;5.53;;
6898;SDS011;3488;42.616;23.350;2024-03-23T07:11:23;12.35;;;5.53;;
6898;SDS011;3488;42.616;23.350;2024-03-23T07:13:50;10.40;;;5.22;;
6898;SDS011;3488;42.616;23.350;2024-03-23T07:16:16;12.23;;;6.00;;
6898;SDS011;3488;42.616;23.350;2024-03-23T07:18:42;12.88;;;4.88;;
6898;SDS011;3488;42.616;23.350;2024-03-23T07:21:08;11.63;;;4.88;;
6898;SDS011;3488;42.616;23.350;2024-03-23T07:23:34;12.43;;;5.55;;
6898;SDS011;3488;42.616;23.350;2024-03-23T07:26:00;11.95;;;4.63;;
6898;SDS011;3488;42.616;23.350;2024-03-23T07:28:27;8.80;;;4.47;;
6898;SDS011;3488;42.616;23.350;2024-03-23T07:31:13;10.95;;;4.53;;
6898;SDS011;3488;42.616;23.350;2024-03-23T07:33:46;11.48;;;4.93;;
6898;SDS011;3488;42.616;23.350;2024-03-23T07:36:14;11.82;;;5.47;;
6898;SDS011;3488;42.616;23.350;2024-03-23T07:38:40;12.88;;;5.45;;
6898;SDS011;3488;42.616;23.350;2024-03-23T07:41:15;13.02;;;5.30;;
6898;SDS011;3488;42.616;23.350;2024-03-23T07:43:42;11.68;;;5.10;;
6898;SDS011;3488;42.616;23.350;2024-03-23T07:46:09;11.52;;;4.88;;
6898;SDS011;3488;42.616;23.350;2024-03-23T07:48:34;11.35;;;4.88;;
6898;SDS011;3488;42.616;23.350;2024-03-23T07:53:27;11.38;;;5.68;;
6898;SDS011;3488;42.616;23.350;2024-03-23T07:58:23;10.05;;;4.82;;
6898;SDS011;3488;42.616;23.350;2024-03-23T08:00:49;10.32;;;4.30;;
6898;SDS011;3488;42.616;23.350;2024-03-23T08:03:15;10.95;;;4.65;;
6898;SDS011;3488;42.616;23.350;2024-03-23T08:05:41;12.05;;;5.63;;
6898;SDS011;3488;42.616;23.350;2024-03-23T08:08:07;12.20;;;5.43;;
6898;SDS011;3488;42.616;23.350;2024-03-23T08:10:32;10.52;;;5.28;;
6898;SDS011;3488;42.616;23.350;2024-03-23T08:12:58;10.57;;;4.93;;
6898;SDS011;3488;42.616;23.350;2024-03-23T08:15:24;10.90;;;5.68;;
6898;SDS011;3488;42.616;23.350;2024-03-23T08:17:49;12.10;;;5.93;;
6898;SDS011;3488;42.616;23.350;2024-03-23T08:20:15;10.93;;;6.18;;
6898;SDS011;3488;42.616;23.350;2024-03-23T08:22:41;11.43;;;5.88;;
6898;SDS011;3488;42.616;23.350;2024-03-23T08:25:06;14.27;;;6.68;;
6898;SDS011;3488;42.616;23.350;2024-03-23T08:27:32;18.17;;;5.88;;
6898;SDS011;3488;42.616;23.350;2024-03-23T08:29:58;14.35;;;5.95;;
6898;SDS011;3488;42.616;23.350;2024-03-23T08:32:23;12.80;;;5.50;;
6898;SDS011;3488;42.616;23.350;2024-03-23T08:34:49;16.63;;;6.05;;
6898;SDS011;3488;42.616;23.350;2024-03-23T08:37:14;11.82;;;5.47;;
6898;SDS011;3488;42.616;23.350;2024-03-23T08:39:40;13.02;;;5.72;;
6898;SDS011;3488;42.616;23.350;2024-03-23T08:42:08;12.60;;;7.13;;
6898;SDS011;3488;42.616;23.350;2024-03-23T08:44:33;14.13;;;6.97;;
6898;SDS011;3488;42.616;23.350;2024-03-23T08:46:59;17.52;;;6.72;;
6898;SDS011;3488;42.616;23.350;2024-03-23T08:49:26;13.95;;;7.00;;
6898;SDS011;3488;42.616;23.350;2024-03-23T08:51:51;13.05;;;6.65;;
6898;SDS011;3488;42.616;23.350;2024-03-23T08:54:17;14.73;;;6.43;;
6898;SDS011;3488;42.616;23.350;2024-03-23T08:56:45;13.18;;;6.93;;
6898;SDS011;3488;42.616;23.350;2024-03-23T08:59:10;15.27;;;6.95;;
6898;SDS011;3488;42.616;23.350;2024-03-23T09:01:36;15.75;;;6.88;;
6898;SDS011;3488;42.616;23.350;2024-03-23T09:04:01;12.68;;;6.43;;
6898;SDS011;3488;42.616;23.350;2024-03-23T09:06:26;16.48;;;6.68;;
6898;SDS011;3488;42.616;23.350;2024-03-23T09:08:52;13.60;;;6.57;;
6898;SDS011;3488;42.616;23.350;2024-03-23T09:11:17;18.33;;;7.63;;
6898;SDS011;3488;42.616;23.350;2024-03-23T09:13:43;15.35;;;6.65;;
6898;SDS011;3488;42.616;23.350;2024-03-23T09:16:09;13.23;;;7.07;;
6898;SDS011;3488;42.616;23.350;2024-03-23T09:18:35;15.27;;;6.82;;
6898;SDS011;3488;42.616;23.350;2024-03-23T09:21:02;12.90;;;6.63;;
6898;SDS011;3488;42.616;23.350;2024-03-23T09:23:28;15.05;;;7.03;;
6898;SDS011;3488;42.616;23.350;2024-03-23T09:25:53;18.40;;;7.30;;
6898;SDS011;3488;42.616;23.350;2024-03-23T09:28:19;12.65;;;6.28;;
6898;SDS011;3488;42.616;23.350;2024-03-23T09:30:45;13.13;;;7.07;;
6898;SDS011;3488;42.616;23.350;2024-03-23T09:33:11;15.27;;;6.85;;
6898;SDS011;3488;42.616;23.350;2024-03-23T09:35:38;13.77;;;6.40;;
6898;SDS011;3488;42.616;23.350;2024-03-23T09:38:04;13.60;;;6.82;;
6898;SDS011;3488;42.616;23.350;2024-03-23T09:40:30;15.73;;;7.03;;
6898;SDS011;3488;42.616;23.350;2024-03-23T09:42:56;13.30;;;6.22;;
6898;SDS011;3488;42.616;23.350;2024-03-23T09:45:26;13.85;;;6.75;;
6898;SDS011;3488;42.616;23.350;2024-03-23T09:47:52;11.80;;;6.20;;
6898;SDS011;3488;42.616;23.350;2024-03-23T09:50:18;13.27;;;7.13;;
6898;SDS011;3488;42.616;23.350;2024-03-23T09:52:45;14.10;;;7.00;;
6898;SDS011;3488;42.616;23.350;2024-03-23T09:55:11;13.60;;;6.68;;
6898;SDS011;3488;42.616;23.350;2024-03-23T09:57:36;16.00;;;6.53;;
6898;SDS011;3488;42.616;23.350;2024-03-23T10:00:02;13.77;;;6.60;;
6898;SDS011;3488;42.616;23.350;2024-03-23T10:02:29;16.77;;;7.05;;
6898;SDS011;3488;42.616;23.350;2024-03-23T10:04:55;13.15;;;6.53;;
6898;SDS011;3488;42.616;23.350;2024-03-23T10:07:22;18.35;;;6.78;;
6898;SDS011;3488;42.616;23.350;2024-03-23T10:09:48;11.48;;;6.03;;
6898;SDS011;3488;42.616;23.350;2024-03-23T10:12:16;12.73;;;6.28;;
6898;SDS011;3488;42.616;23.350;2024-03-23T10:14:43;13.07;;;6.55;;
6898;SDS011;3488;42.616;23.350;2024-03-23T10:17:14;11.95;;;6.20;;
6898;SDS011;3488;42.616;23.350;2024-03-23T10:19:48;10.93;;;5.57;;
6898;SDS011;3488;42.616;23.350;2024-03-23T10:22:23;12.13;;;6.63;;
6898;SDS011;3488;42.616;23.350;2024-03-23T10:24:51;11.55;;;5.93;;
6898;SDS011;3488;42.616;23.350;2024-03-23T10:27:18;13.07;;;6.93;;
6898;SDS011;3488;42.616;23.350;2024-03-23T10:29:48;12.05;;;5.03;;
6898;SDS011;3488;42.616;23.350;2024-03-23T10:32:15;12.23;;;5.95;;
6898;SDS011;3488;42.616;23.350;2024-03-23T10:34:42;15.73;;;6.20;;
6898;SDS011;3488;42.616;23.350;2024-03-23T10:37:10;13.07;;;5.97;;
6898;SDS011;3488;42.616;23.350;2024-03-23T10:39:37;12.05;;;6.50;;
6898;SDS011;3488;42.616;23.350;2024-03-23T10:42:07;11.23;;;5.35;;
6898;SDS011;3488;42.616;23.350;2024-03-23T10:44:37;11.50;;;5.82;;
6898;SDS011;3488;42.616;23.350;2024-03-23T10:47:03;14.07;;;5.18;;
6898;SDS011;3488;42.616;23.350;2024-03-23T10:49:33;11.15;;;5.25;;
6898;SDS011;3488;42.616;23.350;2024-03-23T10:52:04;12.15;;;5.95;;
6898;SDS011;3488;42.616;23.350;2024-03-23T10:54:31;10.77;;;5.57;;
6898;SDS011;3488;42.616;23.350;2024-03-23T10:59:34;13.15;;;4.93;;
6898;SDS011;3488;42.616;23.350;2024-03-23T11:02:03;11.52;;;5.43;;
6898;SDS011;3488;42.616;23.350;2024-03-23T11:04:35;12.13;;;5.03;;
6898;SDS011;3488;42.616;23.350;2024-03-23T11:07:03;14.13;;;6.05;;
6898;SDS011;3488;42.616;23.350;2024-03-23T11:09:49;9.75;;;5.57;;
6898;SDS011;3488;42.616;23.350;2024-03-23T11:14:47;10.55;;;5.28;;
6898;SDS011;3488;42.616;23.350;2024-03-23T11:17:19;9.88;;;5.38;;
6898;SDS011;3488;42.616;23.350;2024-03-23T11:25:18;9.18;;;5.53;;
6898;SDS011;3488;42.616;23.350;2024-03-23T11:27:46;13.00;;;5.78;;
6898;SDS011;3488;42.616;23.350;2024-03-23T11:30:16;13.38;;;5.43;;
6898;SDS011;3488;42.616;23.350;2024-03-23T11:32:43;13.85;;;5.68;;
6898;SDS011;3488;42.616;23.350;2024-03-23T11:35:10;10.93;;;5.28;;
6898;SDS011;3488;42.616;23.350;2024-03-23T11:37:36;10.13;;;5.60;;
6898;SDS011;3488;42.616;23.350;2024-03-23T11:40:18;11.35;;;5.93;;
6898;SDS011;3488;42.616;23.350;2024-03-23T11:42:46;11.57;;;6.22;;
6898;SDS011;3488;42.616;23.350;2024-03-23T11:45:12;11.98;;;5.53;;
6898;SDS011;3488;42.616;23.350;2024-03-23T11:47:39;9.15;;;5.50;;
6898;SDS011;3488;42.616;23.350;2024-03-23T11:50:05;10.27;;;5.68;;
6898;SDS011;3488;42.616;23.350;2024-03-23T11:52:31;9.65;;;5.78;;
6898;SDS011;3488;42.616;23.350;2024-03-23T11:55:04;13.98;;;5.57;;
6898;SDS011;3488;42.616;23.350;2024-03-23T11:57:32;10.80;;;6.03;;
6898;SDS011;3488;42.616;23.350;2024-03-23T11:59:59;11.23;;;5.47;;
6898;SDS011;3488;42.616;23.350;2024-03-23T12:02:24;13.18;;;6.47;;
6898;SDS011;3488;42.616;23.350;2024-03-23T12:04:50;10.10;;;5.45;;
6898;SDS011;3488;42.616;23.350;2024-03-23T12:07:19;11.88;;;4.97;;
6898;SDS011;3488;42.616;23.350;2024-03-23T12:10:06;10.80;;;5.43;;
6898;SDS011;3488;42.616;23.350;2024-03-23T12:12:32;13.90;;;5.60;;
6898;SDS011;3488;42.616;23.350;2024-03-23T12:15:05;11.45;;;5.47;;
6898;SDS011;3488;42.616;23.350;2024-03-23T12:17:33;15.27;;;6.53;;
6898;SDS011;3488;42.616;23.350;2024-03-23T12:20:00;10.43;;;5.40;;
6898;SDS011;3488;42.616;23.350;2024-03-23T12:22:26;12.20;;;6.10;;
6898;SDS011;3488;42.616;23.350;2024-03-23T12:24:52;10.35;;;5.03;;
6898;SDS011;3488;42.616;23.350;2024-03-23T12:27:18;10.38;;;4.97;;
6898;SDS011;3488;42.616;23.350;2024-03-23T12:29:44;11.77;;;5.30;;
6898;SDS011;3488;42.616;23.350;2024-03-23T12:32:12;10.57;;;5.18;;
6898;SDS011;3488;42.616;23.350;2024-03-23T12:34:38;10.20;;;5.07;;
6898;SDS011;3488;42.616;23.350;2024-03-23T12:37:04;10.00;;;5.53;;
6898;SDS011;3488;42.616;23.350;2024-03-23T12:39:31;11.25;;;5.85;;
6898;SDS011;3488;42.616;23.350;2024-03-23T12:41:58;10.35;;;5.85;;
6898;SDS011;3488;42.616;23.350;2024-03-23T12:44:24;13.25;;;5.32;;
6898;SDS011;3488;42.616;23.350;2024-03-23T12:46:50;9.50;;;5.60;;
6898;SDS011;3488;42.616;23.350;2024-03-23T12:49:16;8.80;;;4.93;;
6898;SDS011;3488;42.616;23.350;2024-03-23T12:51:48;9.63;;;5.75;;
6898;SDS011;3488;42.616;23.350;2024-03-23T12:54:23;10.07;;;5.13;;
6898;SDS011;3488;42.616;23.350;2024-03-23T12:56:50;11.02;;;5.35;;
6898;SDS011;3488;42.616;23.350;2024-03-23T12:59:15;12.77;;;5.00;;
6898;SDS011;3488;42.616;23.350;2024-03-23T13:01:43;9.70;;;4.50;;
6898;SDS011;3488;42.616;23.350;2024-03-23T13:04:08;9.25;;;4.00;;
6898;SDS011;3488;42.616;23.350;2024-03-23T13:06:34;10.68;;;4.30;;
6898;SDS011;3488;42.616;23.350;2024-03-23T13:09:03;8.40;;;4.25;;
6898;SDS011;3488;42.616;23.350;2024-03-23T13:11:30;10.38;;;3.63;;
6898;SDS011;3488;42.616;23.350;2024-03-23T13:13:56;9.60;;;3.78;;
6898;SDS011;3488;42.616;23.350;2024-03-23T13:16:22;7.55;;;3.83;;
6898;SDS011;3488;42.616;23.350;2024-03-23T13:18:48;9.13;;;3.55;;
6898;SDS011;3488;42.616;23.350;2024-03-23T13:21:13;6.20;;;3.33;;
6898;SDS011;3488;42.616;23.350;2024-03-23T13:23:39;11.30;;;3.42;;
6898;SDS011;3488;42.616;23.350;2024-03-23T13:26:07;9.70;;;3.28;;
6898;SDS011;3488;42.616;23.350;2024-03-23T13:28:33;6.03;;;2.88;;
6898;SDS011;3488;42.616;23.350;2024-03-23T13:30:59;5.57;;;2.90;;
6898;SDS011;3488;42.616;23.350;2024-03-23T13:33:28;5.93;;;2.83;;
6898;SDS011;3488;42.616;23.350;2024-03-23T13:35:57;6.38;;;3.72;;
6898;SDS011;3488;42.616;23.350;2024-03-23T13:38:24;7.50;;;2.60;;
6898;SDS011;3488;42.616;23.350;2024-03-23T13:43:19;6.00;;;2.83;;
6898;SDS011;3488;42.616;23.350;2024-03-23T13:45:46;3.55;;;1.60;;
6898;SDS011;3488;42.616;23.350;2024-03-23T13:48:13;6.43;;;2.40;;
6898;SDS011;3488;42.616;23.350;2024-03-23T13:50:40;5.85;;;2.92;;
6898;SDS011;3488;42.616;23.350;2024-03-23T13:53:06;5.38;;;2.55;;
6898;SDS011;3488;42.616;23.350;2024-03-23T13:55:33;4.28;;;2.30;;
6898;SDS011;3488;42.616;23.350;2024-03-23T13:57:59;5.75;;;1.80;;
6898;SDS011;3488;42.616;23.350;2024-03-23T14:00:25;4.72;;;2.30;;
6898;SDS011;3488;42.616;23.350;2024-03-23T14:02:50;4.40;;;1.75;;
6898;SDS011;3488;42.616;23.350;2024-03-23T14:05:16;2.95;;;0.70;;
6898;SDS011;3488;42.616;23.350;2024-03-23T14:07:42;2.75;;;0.57;;
6898;SDS011;3488;42.616;23.350;2024-03-23T14:10:09;1.67;;;0.73;;
6898;SDS011;3488;42.616;23.350;2024-03-23T14:12:38;2.95;;;0.75;;
6898;SDS011;3488;42.616;23.350;2024-03-23T14:15:07;3.10;;;1.25;;
6898;SDS011;3488;42.616;23.350;2024-03-23T14:17:33;3.30;;;1.58;;
6898;SDS011;3488;42.616;23.350;2024-03-23T14:19:59;4.07;;;1.48;;
6898;SDS011;3488;42.616;23.350;2024-03-23T14:22:30;2.63;;;1.05;;
6898;SDS011;3488;42.616;23.350;2024-03-23T14:24:57;2.50;;;1.20;;
6898;SDS011;3488;42.616;23.350;2024-03-23T14:27:23;4.05;;;2.05;;
6898;SDS011;3488;42.616;23.350;2024-03-23T14:29:49;4.68;;;2.17;;
6898;SDS011;3488;42.616;23.350;2024-03-23T14:32:16;5.35;;;2.38;;
6898;SDS011;3488;42.616;23.350;2024-03-23T14:34:41;4.10;;;1.50;;
6898;SDS011;3488;42.616;23.350;2024-03-23T14:37:07;5.22;;;2.50;;
6898;SDS011;3488;42.616;23.350;2024-03-23T14:39:33;4.72;;;1.90;;
6898;SDS011;3488;42.616;23.350;2024-03-23T14:44:33;3.70;;;2.00;;
6898;SDS011;3488;42.616;23.350;2024-03-23T14:46:59;6.90;;;1.90;;
6898;SDS011;3488;42.616;23.350;2024-03-23T14:49:25;3.05;;;1.50;;
6898;SDS011;3488;42.616;23.350;2024-03-23T14:51:51;2.53;;;0.85;;
6898;SDS011;3488;42.616;23.350;2024-03-23T14:54:17;2.60;;;1.20;;
6898;SDS011;3488;42.616;23.350;2024-03-23T14:56:44;2.28;;;1.00;;
6898;SDS011;3488;42.616;23.350;2024-03-23T14:59:10;1.85;;;0.70;;
6898;SDS011;3488;42.616;23.350;2024-03-23T15:01:37;3.05;;;1.05;;
6898;SDS011;3488;42.616;23.350;2024-03-23T15:04:07;2.25;;;0.90;;
6898;SDS011;3488;42.616;23.350;2024-03-23T15:06:33;2.88;;;1.05;;
6898;SDS011;3488;42.616;23.350;2024-03-23T15:08:59;1.85;;;0.88;;
6898;SDS011;3488;42.616;23.350;2024-03-23T15:11:28;3.88;;;0.90;;
6898;SDS011;3488;42.616;23.350;2024-03-23T15:13:53;2.65;;;1.10;;
6898;SDS011;3488;42.616;23.350;2024-03-23T15:16:20;2.10;;;0.90;;
6898;SDS011;3488;42.616;23.350;2024-03-23T15:18:47;2.60;;;0.90;;
6898;SDS011;3488;42.616;23.350;2024-03-23T15:21:13;2.50;;;1.10;;
6898;SDS011;3488;42.616;23.350;2024-03-23T15:23:44;2.35;;;0.98;;
6898;SDS011;3488;42.616;23.350;2024-03-23T15:26:11;2.70;;;1.05;;
6898;SDS011;3488;42.616;23.350;2024-03-23T15:28:37;8.50;;;5.07;;
6898;SDS011;3488;42.616;23.350;2024-03-23T15:31:09;2.42;;;1.38;;
6898;SDS011;3488;42.616;23.350;2024-03-23T15:33:37;3.10;;;1.15;;
6898;SDS011;3488;42.616;23.350;2024-03-23T15:36:04;3.25;;;1.30;;
6898;SDS011;3488;42.616;23.350;2024-03-23T15:38:33;3.10;;;1.10;;
6898;SDS011;3488;42.616;23.350;2024-03-23T15:41:02;3.17;;;1.25;;
6898;SDS011;3488;42.616;23.350;2024-03-23T15:43:28;5.93;;;1.23;;
6898;SDS011;3488;42.616;23.350;2024-03-23T15:46:00;3.92;;;1.45;;
6898;SDS011;3488;42.616;23.350;2024-03-23T15:48:31;4.10;;;1.10;;
6898;SDS011;3488;42.616;23.350;2024-03-23T15:50:59;2.70;;;1.00;;
6898;SDS011;3488;42.616;23.350;2024-03-23T15:53:27;5.82;;;1.10;;
6898;SDS011;3488;42.616;23.350;2024-03-23T15:58:27;2.53;;;1.13;;
6898;SDS011;3488;42.616;23.350;2024-03-23T16:00:56;4.35;;;1.52;;
6898;SDS011;3488;42.616;23.350;2024-03-23T16:03:30;2.63;;;1.38;;
6898;SDS011;3488;42.616;23.350;2024-03-23T16:05:58;4.18;;;1.40;;
6898;SDS011;3488;42.616;23.350;2024-03-23T16:08:29;5.05;;;2.10;;